Time;durP1;ratioP1;P1;durP2;ratioP2;P2;SDS_P1;SDS_P2;PMS_P1;PMS_P2;Temp;Humidity;BMP_temperature;BMP_pressure;BME280_temperature;BME280_humidity;BME280_pressure;Samples;Min_cycle;Max_cycle;Signal;HPM_P1;HPM_P2
2022/06/05 00:01:47;;;;;;;5.33;4.90;;;18.60;99.90;;;;;;486453;244;28876;-74
2022/06/05 00:03:48;;;;;;;5.97;5.40;;;18.60;99.90;;;;;;486459;244;28796;-72
2022/06/05 00:05:49;;;;;;;7.07;6.10;;;18.60;99.90;;;;;;486436;244;28999;-72
2022/06/05 00:07:51;;;;;;;8.43;6.67;;;18.60;99.90;;;;;;486425;244;29313;-72
2022/06/05 00:09:52;;;;;;;5.57;5.07;;;18.70;99.90;;;;;;486383;244;29337;-72
2022/06/05 00:11:53;;;;;;;6.33;5.10;;;18.70;99.90;;;;;;486447;244;29351;-73
2022/06/05 00:13:55;;;;;;;5.83;5.23;;;18.70;99.90;;;;;;486450;244;28790;-72
2022/06/05 00:15:55;;;;;;;5.17;4.77;;;18.70;99.90;;;;;;486378;244;28945;-72
2022/06/05 00:17:57;;;;;;;5.23;4.70;;;18.70;99.90;;;;;;486406;244;28789;-72
2022/06/05 00:19:58;;;;;;;5.07;4.60;;;18.70;99.90;;;;;;486435;244;28808;-72
2022/06/05 00:21:59;;;;;;;5.63;5.13;;;18.70;99.90;;;;;;486438;244;28927;-73
2022/06/05 00:24:00;;;;;;;4.63;4.33;;;18.70;99.90;;;;;;486449;244;28872;-72
2022/06/05 00:26:02;;;;;;;5.13;4.73;;;18.60;99.90;;;;;;486418;244;28930;-72
2022/06/05 00:28:03;;;;;;;5.40;4.90;;;18.60;99.90;;;;;;486447;244;28852;-72
2022/06/05 00:30:04;;;;;;;5.63;4.80;;;18.70;99.90;;;;;;486430;244;28855;-72
2022/06/05 00:32:05;;;;;;;5.47;5.00;;;18.70;99.90;;;;;;486444;244;29351;-72
2022/06/05 00:34:07;;;;;;;4.67;4.37;;;18.70;99.90;;;;;;486436;244;29274;-72
2022/06/05 00:36:08;;;;;;;4.87;4.47;;;18.60;99.90;;;;;;486419;244;29349;-72
2022/06/05 00:38:09;;;;;;;4.57;4.27;;;18.60;99.90;;;;;;486422;244;29283;-72
2022/06/05 00:40:10;;;;;;;4.93;4.53;;;18.60;99.90;;;;;;486449;244;28840;-72
2022/06/05 00:42:12;;;;;;;5.50;5.00;;;18.60;99.90;;;;;;486440;244;28831;-73
2022/06/05 00:44:13;;;;;;;5.40;5.00;;;18.60;99.90;;;;;;486415;244;28797;-72
2022/06/05 00:46:14;;;;;;;5.27;4.87;;;18.60;99.90;;;;;;486402;244;29315;-73
2022/06/05 00:48:15;;;;;;;4.67;4.27;;;18.60;99.90;;;;;;486434;244;30022;-72
2022/06/05 00:50:17;;;;;;;4.97;4.57;;;18.60;99.90;;;;;;486442;244;29354;-72
2022/06/05 00:52:18;;;;;;;4.70;4.30;;;18.60;99.90;;;;;;486448;244;29300;-72
2022/06/05 00:54:19;;;;;;;4.47;4.17;;;18.60;99.90;;;;;;486408;244;28817;-72
2022/06/05 00:56:20;;;;;;;4.77;4.37;;;18.60;99.90;;;;;;486424;244;28928;-72
2022/06/05 00:58:22;;;;;;;4.10;3.70;;;18.60;99.90;;;;;;486443;244;28848;-72
2022/06/05 01:00:23;;;;;;;4.30;4.00;;;18.60;99.90;;;;;;486436;244;28880;-72
2022/06/05 01:02:24;;;;;;;3.93;3.63;;;18.60;99.90;;;;;;486434;244;28847;-73
2022/06/05 01:04:25;;;;;;;5.10;4.70;;;18.50;99.90;;;;;;486448;244;28835;-72
2022/06/05 01:06:27;;;;;;;4.60;4.20;;;18.50;99.90;;;;;;486411;244;28938;-72
2022/06/05 01:08:28;;;;;;;5.53;5.03;;;18.50;99.90;;;;;;486430;244;28923;-74
2022/06/05 01:10:29;;;;;;;5.70;5.20;;;18.40;99.90;;;;;;486425;244;29289;-71
2022/06/05 01:12:30;;;;;;;5.57;5.07;;;18.40;99.90;;;;;;486437;244;29358;-73
2022/06/05 01:14:32;;;;;;;6.10;5.60;;;18.40;99.90;;;;;;486425;244;29373;-73
2022/06/05 01:16:33;;;;;;;5.47;5.07;;;18.40;99.90;;;;;;486401;244;29336;-73
2022/06/05 01:18:34;;;;;;;6.77;5.30;;;18.40;99.90;;;;;;486443;244;28845;-75
2022/06/05 01:20:35;;;;;;;5.53;5.13;;;18.50;99.90;;;;;;486465;244;28889;-72
2022/06/05 01:22:37;;;;;;;5.43;4.93;;;18.40;99.90;;;;;;486479;244;28851;-72
2022/06/05 01:24:38;;;;;;;5.60;5.10;;;18.40;99.90;;;;;;486460;244;28800;-72
2022/06/05 01:26:39;;;;;;;8.27;5.80;;;18.40;99.90;;;;;;486472;244;28844;-72
2022/06/05 01:28:40;;;;;;;6.17;5.60;;;18.40;99.90;;;;;;486469;244;29236;-74
2022/06/05 01:30:42;;;;;;;7.03;6.23;;;18.40;99.90;;;;;;486402;244;28892;-72
2022/06/05 01:32:43;;;;;;;5.87;5.37;;;18.40;99.90;;;;;;486443;244;28838;-73
2022/06/05 01:34:44;;;;;;;9.13;5.63;;;18.40;99.90;;;;;;486445;244;28800;-72
2022/06/05 01:36:45;;;;;;;7.00;6.40;;;18.40;99.90;;;;;;486426;244;29303;-72
2022/06/05 01:38:47;;;;;;;6.47;5.87;;;18.40;99.90;;;;;;486437;244;29453;-75
2022/06/05 01:40:48;;;;;;;7.57;6.77;;;18.30;99.90;;;;;;486457;244;29343;-72
2022/06/05 01:42:49;;;;;;;7.30;6.57;;;18.30;99.90;;;;;;486421;244;28851;-73
2022/06/05 01:44:50;;;;;;;8.13;7.33;;;18.30;99.90;;;;;;486421;244;28858;-73
2022/06/05 01:46:52;;;;;;;7.43;6.73;;;18.20;99.90;;;;;;486402;244;28939;-73
2022/06/05 01:48:53;;;;;;;7.17;6.50;;;18.30;99.90;;;;;;486439;244;28834;-72
2022/06/05 01:50:54;;;;;;;6.83;6.23;;;18.20;99.90;;;;;;486450;244;28918;-72
2022/06/05 01:52:55;;;;;;;6.90;6.30;;;18.20;99.90;;;;;;486436;244;28985;-72
2022/06/05 01:54:57;;;;;;;7.83;7.13;;;18.20;99.90;;;;;;486459;244;28818;-72
2022/06/05 01:56:58;;;;;;;7.63;6.93;;;18.20;99.90;;;;;;486451;244;28899;-72
2022/06/05 01:58:59;;;;;;;7.27;6.50;;;18.20;99.90;;;;;;486444;244;28831;-72
2022/06/05 02:01:00;;;;;;;7.43;6.73;;;18.20;99.90;;;;;;486445;244;29341;-72
2022/06/05 02:03:02;;;;;;;7.90;7.20;;;18.20;99.90;;;;;;486442;244;29327;-72
2022/06/05 02:05:03;;;;;;;6.47;5.97;;;18.20;99.90;;;;;;486447;244;29259;-72
2022/06/05 02:07:04;;;;;;;9.80;7.50;;;18.20;99.90;;;;;;486419;244;28866;-73
2022/06/05 02:09:05;;;;;;;8.40;7.70;;;18.20;99.90;;;;;;486432;244;28895;-72
2022/06/05 02:11:07;;;;;;;8.10;7.30;;;18.10;99.90;;;;;;486459;244;28903;-74
2022/06/05 02:13:08;;;;;;;8.10;7.40;;;18.20;99.90;;;;;;486462;244;28843;-74
2022/06/05 02:15:09;;;;;;;8.50;7.70;;;18.20;99.90;;;;;;486433;244;28801;-72
2022/06/05 02:17:10;;;;;;;8.20;7.50;;;18.20;99.90;;;;;;486444;244;28962;-72
2022/06/05 02:19:12;;;;;;;10.23;7.90;;;18.10;99.90;;;;;;486452;244;28875;-75
2022/06/05 02:21:13;;;;;;;7.63;6.93;;;18.20;99.90;;;;;;486466;244;28816;-72
2022/06/05 02:23:14;;;;;;;7.80;7.03;;;18.10;99.90;;;;;;486455;244;29304;-73
2022/06/05 02:25:15;;;;;;;7.63;6.77;;;18.10;99.90;;;;;;486464;244;29368;-72
2022/06/05 02:27:17;;;;;;;8.10;7.30;;;18.10;99.90;;;;;;486442;244;29445;-72
2022/06/05 02:29:18;;;;;;;7.80;7.10;;;18.10;99.90;;;;;;486437;244;29174;-72
2022/06/05 02:31:19;;;;;;;7.80;7.10;;;18.10;99.90;;;;;;486466;243;28791;-72
2022/06/05 02:33:20;;;;;;;7.50;6.80;;;18.10;99.90;;;;;;486452;244;28965;-73
2022/06/05 02:35:22;;;;;;;6.97;6.37;;;18.10;99.90;;;;;;486451;244;28904;-72
2022/06/05 02:37:23;;;;;;;6.67;6.00;;;18.10;99.90;;;;;;486461;244;28910;-73
2022/06/05 02:39:24;;;;;;;6.70;6.10;;;18.10;99.90;;;;;;486458;244;28853;-72
2022/06/05 02:41:25;;;;;;;6.90;6.30;;;18.10;99.90;;;;;;486464;244;28825;-72
2022/06/05 02:43:27;;;;;;;8.00;7.30;;;18.10;99.90;;;;;;486477;244;28914;-73
2022/06/05 02:45:28;;;;;;;7.70;7.00;;;18.10;99.90;;;;;;486452;244;28912;-72
2022/06/05 02:47:30;;;;;;;6.50;5.97;;;18.10;99.90;;;;;;486472;244;29305;-72
2022/06/05 02:49:31;;;;;;;6.60;6.00;;;18.10;99.90;;;;;;486406;244;29446;-74
2022/06/05 02:51:33;;;;;;;6.10;5.60;;;18.10;99.90;;;;;;486466;244;29281;-72
2022/06/05 02:53:33;;;;;;;6.20;5.70;;;18.10;99.90;;;;;;486382;244;28865;-73
2022/06/05 02:55:34;;;;;;;9.20;6.13;;;18.10;99.90;;;;;;486453;244;28803;-72
2022/06/05 02:57:35;;;;;;;6.17;5.67;;;18.10;99.90;;;;;;486430;244;28838;-72
2022/06/05 02:59:37;;;;;;;6.00;5.50;;;18.10;99.90;;;;;;486419;244;28844;-72
2022/06/05 03:03:58;;;;;;;6.43;5.93;;;18.10;99.90;;;;;;486434;244;28859;-72
2022/06/05 03:05:59;;;;;;;5.33;4.93;;;18.10;99.90;;;;;;486438;244;28857;-72
2022/06/05 03:08:00;;;;;;;5.70;5.20;;;18.10;99.90;;;;;;486467;244;28809;-72
2022/06/05 03:10:01;;;;;;;5.00;4.60;;;18.10;99.90;;;;;;486432;244;28879;-73
2022/06/05 03:12:03;;;;;;;5.30;4.87;;;18.10;99.90;;;;;;486420;244;28825;-72
2022/06/05 03:14:04;;;;;;;5.60;4.67;;;18.10;99.90;;;;;;486429;244;28839;-72
2022/06/05 03:16:07;;;;;;;4.53;4.23;;;18.00;99.90;;;;;;486441;244;28852;-72
2022/06/05 03:18:06;;;;;;;4.70;4.40;;;18.10;99.90;;;;;;486314;244;29277;-72
2022/06/05 03:20:08;;;;;;;5.70;5.30;;;18.00;99.90;;;;;;486451;244;29375;-73
2022/06/05 03:22:09;;;;;;;4.77;4.47;;;18.00;99.90;;;;;;486358;244;29251;-73
2022/06/05 03:24:10;;;;;;;4.50;4.00;;;18.00;99.90;;;;;;486446;244;29306;-72
2022/06/05 03:26:11;;;;;;;4.60;4.30;;;18.00;99.90;;;;;;486445;244;28874;-72
2022/06/05 03:28:13;;;;;;;4.27;3.97;;;18.10;99.90;;;;;;486433;244;28820;-72
2022/06/05 03:30:14;;;;;;;5.10;4.70;;;18.10;99.90;;;;;;486465;244;28943;-73
2022/06/05 03:32:15;;;;;;;5.30;4.90;;;18.10;99.90;;;;;;486432;244;28903;-72
2022/06/05 03:34:17;;;;;;;5.73;5.27;;;18.00;99.90;;;;;;486443;244;28839;-72
2022/06/05 03:36:18;;;;;;;6.23;5.70;;;18.00;99.90;;;;;;486470;244;28786;-73
2022/06/05 03:38:19;;;;;;;5.93;5.43;;;18.00;99.90;;;;;;486421;244;28817;-72
2022/06/05 03:40:20;;;;;;;8.90;5.20;;;18.00;99.90;;;;;;486371;244;28923;-72
2022/06/05 03:42:21;;;;;;;6.40;5.80;;;17.90;99.90;;;;;;486338;244;28835;-72
2022/06/05 03:44:23;;;;;;;6.20;5.70;;;17.90;99.90;;;;;;486347;243;29393;-72
2022/06/05 03:46:24;;;;;;;6.80;6.20;;;17.80;99.90;;;;;;486425;244;29527;-74
2022/06/05 03:48:25;;;;;;;5.83;5.30;;;17.80;99.90;;;;;;486420;244;29360;-72
2022/06/05 03:50:26;;;;;;;6.60;5.87;;;17.70;99.90;;;;;;486408;243;28849;-73
2022/06/05 03:52:28;;;;;;;6.17;5.67;;;17.70;99.90;;;;;;486404;244;28890;-71
2022/06/05 03:54:29;;;;;;;5.87;5.37;;;17.70;99.90;;;;;;486407;243;28865;-72
2022/06/05 03:56:30;;;;;;;5.40;5.00;;;17.70;99.90;;;;;;486471;244;28884;-72
2022/06/05 03:58:31;;;;;;;5.90;5.40;;;17.70;99.90;;;;;;486453;244;28851;-72
2022/06/05 04:00:33;;;;;;;5.47;4.97;;;17.60;99.90;;;;;;486451;244;28845;-72
2022/06/05 04:02:34;;;;;;;6.20;5.63;;;17.60;99.90;;;;;;486406;244;28823;-72
2022/06/05 04:04:35;;;;;;;6.40;5.80;;;17.60;99.90;;;;;;486444;244;28822;-72
2022/06/05 04:06:36;;;;;;;5.50;5.10;;;17.60;99.90;;;;;;486463;244;28877;-74
2022/06/05 04:08:38;;;;;;;4.90;4.53;;;17.60;99.90;;;;;;486426;244;29289;-72
2022/06/05 04:10:39;;;;;;;6.23;5.70;;;17.60;99.90;;;;;;486443;244;29261;-72
2022/06/05 04:12:40;;;;;;;5.57;5.07;;;17.60;99.90;;;;;;486426;244;29423;-71
2022/06/05 04:14:41;;;;;;;6.20;5.47;;;17.60;99.90;;;;;;486437;244;28848;-72
2022/06/05 04:16:43;;;;;;;7.20;6.60;;;17.50;99.90;;;;;;486444;244;28852;-74
2022/06/05 04:18:44;;;;;;;7.13;6.23;;;17.40;99.90;;;;;;486463;244;28890;-72
2022/06/05 04:20:45;;;;;;;6.97;6.37;;;17.50;99.90;;;;;;486463;244;28842;-72
2022/06/05 04:22:46;;;;;;;6.30;5.70;;;17.50;99.90;;;;;;486465;244;28869;-72
2022/06/05 04:24:48;;;;;;;6.70;6.10;;;17.40;99.90;;;;;;486457;244;28967;-72
2022/06/05 04:26:49;;;;;;;6.40;5.80;;;17.40;99.90;;;;;;486465;244;29360;-75
2022/06/05 04:28:53;;;;;;;6.30;5.80;;;17.40;99.90;;;;;;486463;244;28810;-72
2022/06/05 04:30:51;;;;;;;5.80;5.30;;;17.50;99.90;;;;;;486250;244;28965;-73
2022/06/05 04:32:53;;;;;;;5.47;4.97;;;17.40;99.90;;;;;;486429;244;29347;-72
2022/06/05 04:34:54;;;;;;;5.70;5.30;;;17.40;99.90;;;;;;486457;244;29308;-72
2022/06/05 04:36:55;;;;;;;6.10;5.60;;;17.40;99.90;;;;;;486435;244;29321;-72
2022/06/05 04:38:56;;;;;;;5.60;5.10;;;17.40;99.90;;;;;;486434;244;29260;-72
2022/06/05 04:40:58;;;;;;;5.90;5.30;;;17.40;99.90;;;;;;486422;244;28846;-72
2022/06/05 04:42:59;;;;;;;5.90;5.40;;;17.30;99.90;;;;;;486405;244;28894;-72
2022/06/05 04:45:00;;;;;;;5.00;4.60;;;17.30;99.90;;;;;;486408;244;28829;-72
2022/06/05 04:47:02;;;;;;;9.30;5.23;;;17.20;99.90;;;;;;486442;244;28855;-74
2022/06/05 04:49:03;;;;;;;6.73;6.13;;;17.20;99.90;;;;;;486412;244;28821;-72
2022/06/05 04:51:04;;;;;;;6.93;6.23;;;17.10;99.90;;;;;;486430;244;28857;-73
2022/06/05 04:53:05;;;;;;;6.77;6.20;;;17.10;99.90;;;;;;486430;244;28809;-72
2022/06/05 04:55:07;;;;;;;5.80;5.30;;;17.20;99.90;;;;;;486429;244;28838;-72
2022/06/05 04:57:08;;;;;;;5.90;5.40;;;17.20;99.90;;;;;;486315;244;29366;-73
2022/06/05 04:59:09;;;;;;;6.67;6.00;;;17.30;99.90;;;;;;486446;244;29381;-72
2022/06/05 05:01:10;;;;;;;5.50;5.10;;;17.20;99.90;;;;;;486417;244;29470;-73
2022/06/05 05:03:12;;;;;;;6.33;5.77;;;17.30;99.90;;;;;;486420;244;29411;-73
2022/06/05 05:05:13;;;;;;;6.30;5.47;;;17.30;99.90;;;;;;486460;244;28888;-73
2022/06/05 05:07:14;;;;;;;5.33;4.93;;;17.30;99.90;;;;;;486391;244;28857;-74
2022/06/05 05:09:15;;;;;;;5.23;4.77;;;17.40;99.90;;;;;;486212;243;28827;-72
2022/06/05 05:11:17;;;;;;;5.40;5.00;;;17.40;99.90;;;;;;486138;244;28848;-73
2022/06/05 05:13:18;;;;;;;5.00;4.60;;;17.40;99.90;;;;;;486426;244;29197;-73
2022/06/05 05:15:19;;;;;;;5.83;5.33;;;17.40;99.90;;;;;;486433;244;28827;-72
2022/06/05 05:17:20;;;;;;;5.30;4.90;;;17.50;99.90;;;;;;486437;244;28850;-73
2022/06/05 05:19:22;;;;;;;4.50;4.10;;;17.50;99.90;;;;;;486436;244;28859;-73
2022/06/05 05:21:23;;;;;;;4.30;4.00;;;17.50;99.90;;;;;;486413;244;28844;-73
2022/06/05 05:23:24;;;;;;;5.10;4.70;;;17.50;99.90;;;;;;486448;244;29316;-75
2022/06/05 05:25:25;;;;;;;4.30;4.00;;;17.50;99.90;;;;;;486420;244;29271;-73
2022/06/05 05:27:27;;;;;;;5.23;4.57;;;17.50;99.90;;;;;;486416;244;29326;-73
2022/06/05 05:29:28;;;;;;;4.93;4.53;;;17.60;99.90;;;;;;486435;244;28896;-73
2022/06/05 05:31:29;;;;;;;5.50;5.10;;;17.50;99.90;;;;;;486447;244;28836;-72
2022/06/05 05:33:30;;;;;;;6.77;6.07;;;17.50;99.90;;;;;;486447;244;28855;-75
2022/06/05 05:35:32;;;;;;;7.17;6.40;;;17.40;99.90;;;;;;486466;244;28963;-72
2022/06/05 05:37:33;;;;;;;6.10;5.60;;;17.50;99.90;;;;;;486427;244;28920;-73
2022/06/05 05:42:06;;;;;;;8.80;8.10;;;17.50;99.90;;;;;;486454;244;28890;-73
2022/06/05 05:44:07;;;;;;;10.47;9.47;;;17.40;99.90;;;;;;486455;244;28929;-74
2022/06/05 05:46:08;;;;;;;9.90;8.60;;;17.20;99.90;;;;;;486438;243;28814;-72
2022/06/05 05:48:09;;;;;;;8.63;7.87;;;17.40;99.90;;;;;;486440;244;28946;-72
2022/06/05 05:50:11;;;;;;;7.90;7.23;;;17.50;99.90;;;;;;486464;244;29543;-74
2022/06/05 05:52:12;;;;;;;7.30;6.70;;;17.70;99.90;;;;;;486460;244;29326;-73
2022/06/05 05:54:13;;;;;;;7.30;6.70;;;17.80;99.90;;;;;;486479;244;29229;-73
2022/06/05 05:56:14;;;;;;;6.40;5.80;;;17.90;99.90;;;;;;486449;244;28905;-72
2022/06/05 05:58:16;;;;;;;6.10;5.60;;;18.00;99.90;;;;;;486452;244;28838;-73
2022/06/05 06:00:17;;;;;;;6.50;5.90;;;18.00;99.90;;;;;;486445;244;28904;-73
2022/06/05 06:02:21;;;;;;;5.57;5.17;;;18.10;99.90;;;;;;486488;244;28877;-73
2022/06/05 06:04:19;;;;;;;6.30;5.73;;;18.10;99.90;;;;;;486300;244;28836;-74
2022/06/05 06:06:21;;;;;;;6.17;5.67;;;18.10;99.90;;;;;;486506;244;28830;-73
2022/06/05 06:08:22;;;;;;;6.03;5.53;;;18.30;99.90;;;;;;486490;244;28866;-74
2022/06/05 06:10:23;;;;;;;6.23;5.73;;;18.40;99.90;;;;;;486469;244;28833;-73
2022/06/05 06:12:24;;;;;;;5.90;5.40;;;18.50;99.90;;;;;;486486;244;28912;-73
2022/06/05 06:14:26;;;;;;;5.13;4.73;;;18.60;99.90;;;;;;486474;244;29289;-74
2022/06/05 06:16:27;;;;;;;5.07;4.70;;;18.70;99.90;;;;;;486459;244;29334;-73
2022/06/05 06:18:28;;;;;;;6.40;5.90;;;18.80;99.90;;;;;;486464;244;29310;-72
2022/06/05 06:20:29;;;;;;;6.00;5.60;;;18.70;99.90;;;;;;486432;244;29210;-73
2022/06/05 06:22:31;;;;;;;5.73;5.23;;;18.70;99.90;;;;;;486479;244;28802;-73
2022/06/05 06:24:32;;;;;;;6.70;6.20;;;18.60;99.90;;;;;;486469;244;28853;-74
2022/06/05 06:26:33;;;;;;;6.63;6.13;;;18.60;99.90;;;;;;486446;244;28814;-73
2022/06/05 06:28:34;;;;;;;5.73;5.33;;;18.50;99.90;;;;;;486442;244;28854;-73
2022/06/05 06:30:36;;;;;;;5.60;5.10;;;18.50;99.90;;;;;;486464;244;28914;-73
2022/06/05 06:32:37;;;;;;;5.17;4.77;;;18.70;99.90;;;;;;486460;244;28828;-73
2022/06/05 06:34:38;;;;;;;5.80;5.30;;;18.70;99.90;;;;;;486482;244;28845;-73
2022/06/05 06:36:39;;;;;;;5.67;5.17;;;18.60;99.90;;;;;;486405;244;28810;-72
2022/06/05 06:38:41;;;;;;;7.53;5.50;;;18.70;99.90;;;;;;486407;244;29322;-73
2022/06/05 06:40:42;;;;;;;6.30;5.70;;;18.80;99.90;;;;;;486410;244;29406;-73
2022/06/05 06:42:43;;;;;;;6.10;5.60;;;18.70;99.90;;;;;;486480;244;29357;-72
2022/06/05 06:44:44;;;;;;;6.67;6.07;;;18.70;99.90;;;;;;486457;244;28935;-73
2022/06/05 06:46:46;;;;;;;6.43;5.83;;;18.80;99.90;;;;;;486447;244;28952;-73
2022/06/05 06:48:47;;;;;;;6.40;5.90;;;18.90;99.90;;;;;;486453;244;28865;-73
2022/06/05 06:50:48;;;;;;;6.10;5.60;;;19.00;99.90;;;;;;486478;244;28840;-73
2022/06/05 06:52:49;;;;;;;5.73;5.23;;;19.10;99.90;;;;;;486469;244;28897;-73
2022/06/05 06:54:51;;;;;;;5.13;4.80;;;19.20;99.90;;;;;;486467;244;28855;-73
2022/06/05 06:56:52;;;;;;;5.03;4.63;;;19.30;99.90;;;;;;486448;244;28883;-73
2022/06/05 06:58:53;;;;;;;5.33;4.93;;;19.40;99.90;;;;;;486452;244;28871;-73
2022/06/05 07:00:54;;;;;;;5.20;4.73;;;19.30;99.90;;;;;;486477;244;28856;-75
2022/06/05 07:02:56;;;;;;;5.10;4.70;;;19.30;99.90;;;;;;486459;244;29381;-73
2022/06/05 07:04:57;;;;;;;5.53;5.10;;;19.40;99.90;;;;;;486439;244;29405;-73
2022/06/05 07:06:58;;;;;;;4.70;4.40;;;19.40;99.90;;;;;;486446;244;29335;-72
2022/06/05 07:08:59;;;;;;;4.30;4.00;;;19.30;99.90;;;;;;486427;244;29336;-73
2022/06/05 07:11:01;;;;;;;4.80;4.40;;;19.20;99.90;;;;;;486457;244;28879;-74
2022/06/05 07:13:02;;;;;;;4.97;4.50;;;19.20;99.90;;;;;;486464;244;28987;-73
2022/06/05 07:15:03;;;;;;;5.23;4.80;;;19.20;99.90;;;;;;486447;244;28835;-73
2022/06/05 07:17:04;;;;;;;5.50;5.00;;;19.00;99.90;;;;;;486439;244;28835;-73
2022/06/05 07:19:06;;;;;;;4.30;4.00;;;19.00;99.90;;;;;;486462;244;28856;-73
2022/06/05 07:21:07;;;;;;;4.33;4.03;;;19.10;99.90;;;;;;486459;244;29210;-76
2022/06/05 07:23:08;;;;;;;4.43;4.13;;;19.20;99.90;;;;;;486441;244;28820;-73
2022/06/05 07:25:09;;;;;;;4.30;4.00;;;19.20;99.90;;;;;;486467;244;28855;-73
2022/06/05 07:27:11;;;;;;;4.27;3.97;;;19.30;99.90;;;;;;486444;244;29348;-72
2022/06/05 07:29:12;;;;;;;4.30;4.00;;;19.40;99.90;;;;;;486461;244;29359;-72
2022/06/05 07:31:13;;;;;;;4.13;3.83;;;19.50;99.90;;;;;;486481;244;30080;-76
2022/06/05 07:33:14;;;;;;;4.90;4.10;;;19.70;99.90;;;;;;486454;244;29402;-72
2022/06/05 07:35:16;;;;;;;4.40;4.10;;;19.80;99.90;;;;;;486477;244;28863;-73
2022/06/05 07:37:17;;;;;;;4.33;3.93;;;19.70;99.90;;;;;;486456;244;28832;-73
2022/06/05 07:39:18;;;;;;;6.93;4.60;;;19.80;99.90;;;;;;486459;244;28851;-74
2022/06/05 07:41:19;;;;;;;4.70;4.40;;;19.90;99.90;;;;;;486492;244;28834;-75
2022/06/05 07:43:21;;;;;;;5.10;4.70;;;20.00;99.90;;;;;;486468;244;29012;-73
2022/06/05 07:45:22;;;;;;;5.10;4.60;;;20.10;99.90;;;;;;486438;244;28923;-73
2022/06/05 07:47:23;;;;;;;5.87;5.37;;;20.10;99.90;;;;;;486455;244;28808;-73
2022/06/05 07:49:24;;;;;;;6.07;5.47;;;20.20;99.90;;;;;;486415;244;28894;-72
2022/06/05 07:56:05;;;;;;;6.40;5.90;;;20.30;99.90;;;;;;486455;244;28865;-73
2022/06/05 07:58:06;;;;;;;6.30;5.70;;;20.40;99.90;;;;;;486460;244;28870;-75
2022/06/05 08:00:07;;;;;;;6.10;5.70;;;20.50;99.90;;;;;;486438;243;28893;-73
2022/06/05 08:02:09;;;;;;;6.30;5.80;;;20.50;99.90;;;;;;486439;244;28911;-73
2022/06/05 08:04:10;;;;;;;6.20;5.70;;;20.50;99.90;;;;;;486446;244;28844;-74
2022/06/05 08:06:11;;;;;;;6.70;6.20;;;20.50;99.90;;;;;;486452;244;28844;-73
2022/06/05 08:08:12;;;;;;;7.00;6.40;;;20.60;99.90;;;;;;486465;244;28854;-73
2022/06/05 08:10:14;;;;;;;6.77;6.23;;;20.50;99.90;;;;;;486428;244;29379;-73
2022/06/05 08:12:15;;;;;;;6.37;5.77;;;20.60;99.90;;;;;;486415;244;29340;-73
2022/06/05 08:14:16;;;;;;;6.70;6.17;;;20.60;99.90;;;;;;486451;244;29437;-73
2022/06/05 08:16:18;;;;;;;6.40;5.90;;;20.60;99.90;;;;;;486432;244;29353;-73
2022/06/05 08:18:19;;;;;;;6.10;5.70;;;20.50;99.90;;;;;;486439;244;28943;-74
2022/06/05 08:20:20;;;;;;;7.57;6.20;;;20.60;99.90;;;;;;486466;244;28901;-73
2022/06/05 08:22:21;;;;;;;7.37;6.70;;;20.50;99.90;;;;;;486434;244;28874;-73
2022/06/05 08:24:22;;;;;;;6.83;6.23;;;20.50;99.90;;;;;;486424;244;28938;-72
2022/06/05 08:26:24;;;;;;;6.63;6.13;;;20.50;99.90;;;;;;486459;244;28810;-73
2022/06/05 08:28:25;;;;;;;5.37;4.97;;;20.60;99.90;;;;;;486445;244;28932;-74
2022/06/05 08:30:26;;;;;;;6.90;6.30;;;20.60;99.90;;;;;;486435;244;28895;-73
2022/06/05 08:32:28;;;;;;;6.80;6.20;;;20.60;99.90;;;;;;486334;244;28933;-73
2022/06/05 08:34:29;;;;;;;6.83;6.33;;;20.60;99.90;;;;;;486450;244;28835;-73
2022/06/05 08:36:30;;;;;;;7.10;6.57;;;20.60;99.90;;;;;;486432;244;28810;-73
2022/06/05 08:43:11;;;;;;;6.77;6.20;;;20.30;99.90;;;;;;486445;244;28937;-73
2022/06/05 08:45:12;;;;;;;6.70;6.20;;;20.20;99.90;;;;;;486434;244;28845;-73
2022/06/05 08:47:13;;;;;;;7.23;6.63;;;20.30;99.90;;;;;;486451;244;28922;-76
2022/06/05 08:49:14;;;;;;;7.90;6.13;;;20.30;99.90;;;;;;486464;244;28815;-73
2022/06/05 08:51:16;;;;;;;7.07;6.47;;;20.30;99.90;;;;;;486458;244;28941;-74
2022/06/05 08:53:17;;;;;;;7.17;6.50;;;20.30;99.90;;;;;;486465;244;29356;-73
2022/06/05 08:55:18;;;;;;;6.57;6.07;;;20.30;99.90;;;;;;486456;244;29411;-73
2022/06/05 08:57:19;;;;;;;7.93;7.20;;;20.30;99.90;;;;;;486479;244;29337;-74
2022/06/05 08:59:21;;;;;;;7.70;6.90;;;20.20;99.90;;;;;;486446;244;28981;-73
2022/06/05 09:01:22;;;;;;;7.20;6.70;;;20.30;99.90;;;;;;486482;244;28840;-74
2022/06/05 09:03:24;;;;;;;7.07;6.47;;;20.30;99.90;;;;;;486438;244;28806;-73
2022/06/05 09:05:24;;;;;;;6.90;6.30;;;20.30;99.90;;;;;;486355;244;28867;-72
2022/06/05 09:07:26;;;;;;;7.00;6.30;;;20.30;99.90;;;;;;486462;244;28857;-76
2022/06/05 09:09:27;;;;;;;7.67;7.07;;;20.10;99.90;;;;;;486439;244;28853;-73
2022/06/05 09:11:28;;;;;;;5.87;5.43;;;20.00;99.90;;;;;;486446;244;28973;-73
2022/06/05 09:13:29;;;;;;;6.40;5.90;;;20.00;99.90;;;;;;486446;244;28796;-73
2022/06/05 09:15:31;;;;;;;6.63;6.00;;;19.80;99.90;;;;;;486438;244;28832;-74
2022/06/05 09:17:32;;;;;;;6.60;6.10;;;19.70;99.90;;;;;;486447;244;29350;-75
2022/06/05 09:19:33;;;;;;;6.20;5.60;;;19.70;99.90;;;;;;486448;244;29361;-73
2022/06/05 09:21:34;;;;;;;7.60;6.60;;;19.70;99.90;;;;;;486415;244;29406;-73
2022/06/05 09:23:36;;;;;;;7.40;6.80;;;19.70;99.90;;;;;;486442;244;28790;-73
2022/06/05 09:25:39;;;;;;;6.97;6.37;;;19.80;99.90;;;;;;486443;244;28853;-73
2022/06/05 09:27:38;;;;;;;6.80;6.23;;;20.00;99.90;;;;;;486295;244;28854;-75
2022/06/05 09:29:42;;;;;;;6.90;6.40;;;20.10;99.90;;;;;;486441;244;28815;-73
2022/06/05 09:31:41;;;;;;;7.00;6.40;;;20.10;99.90;;;;;;486261;244;28921;-73
2022/06/05 09:33:42;;;;;;;7.00;6.30;;;20.30;99.90;;;;;;486436;244;29315;-73
2022/06/05 09:35:43;;;;;;;6.90;6.30;;;20.30;99.90;;;;;;486412;244;28848;-73
2022/06/05 09:37:44;;;;;;;6.63;6.13;;;20.30;99.90;;;;;;486453;244;29278;-76
2022/06/05 09:39:46;;;;;;;6.83;6.23;;;20.30;99.90;;;;;;486426;244;28810;-73
2022/06/05 09:41:47;;;;;;;6.20;5.70;;;20.50;99.90;;;;;;486454;244;29321;-74
2022/06/05 09:43:48;;;;;;;6.77;6.27;;;20.70;99.90;;;;;;486422;244;29242;-73
2022/06/05 09:45:50;;;;;;;6.67;6.07;;;21.00;99.90;;;;;;486426;244;29396;-74
2022/06/05 09:47:51;;;;;;;7.53;6.30;;;21.30;99.90;;;;;;486424;244;29328;-74
2022/06/05 09:49:54;;;;;;;6.63;6.13;;;21.40;99.90;;;;;;486396;244;28862;-74
2022/06/05 09:51:53;;;;;;;7.13;6.40;;;21.60;99.90;;;;;;486321;244;28952;-74
2022/06/05 09:53:54;;;;;;;6.57;6.07;;;21.40;99.90;;;;;;486429;244;28814;-74
2022/06/05 09:55:56;;;;;;;7.40;6.80;;;21.30;99.90;;;;;;486444;244;28888;-74
2022/06/05 10:00:16;;;;;;;6.60;6.10;;;21.10;99.90;;;;;;486436;244;29292;-74
2022/06/05 10:02:19;;;;;;;7.77;7.13;;;20.90;99.90;;;;;;486430;244;28846;-74
2022/06/05 10:04:19;;;;;;;6.83;6.23;;;20.70;99.90;;;;;;486393;244;28898;-73
2022/06/05 10:06:20;;;;;;;6.67;6.13;;;20.50;99.90;;;;;;486434;244;28884;-73
2022/06/05 10:08:21;;;;;;;6.70;6.10;;;20.50;99.90;;;;;;486453;244;28833;-74
2022/06/05 10:10:23;;;;;;;7.40;6.80;;;20.40;99.90;;;;;;486445;244;28830;-73
2022/06/05 10:12:24;;;;;;;6.73;6.13;;;20.30;99.90;;;;;;486460;244;28862;-74
2022/06/05 10:14:25;;;;;;;6.50;6.00;;;20.30;99.90;;;;;;486468;244;28794;-73
2022/06/05 10:16:26;;;;;;;6.80;6.20;;;20.20;99.90;;;;;;486469;244;28876;-72
2022/06/05 10:18:28;;;;;;;6.77;6.20;;;20.30;99.90;;;;;;486477;244;29378;-75
2022/06/05 10:20:29;;;;;;;6.13;5.63;;;20.20;99.90;;;;;;486471;244;29238;-73
2022/06/05 10:22:30;;;;;;;5.33;4.93;;;20.30;99.90;;;;;;486470;244;29405;-73
2022/06/05 10:24:31;;;;;;;6.23;5.73;;;20.30;99.90;;;;;;486463;244;29344;-73
2022/06/05 10:26:33;;;;;;;6.60;6.10;;;20.30;99.90;;;;;;486456;244;28912;-74
2022/06/05 10:28:34;;;;;;;6.00;5.50;;;20.30;99.90;;;;;;486472;244;28850;-75
2022/06/05 10:30:35;;;;;;;5.77;5.37;;;20.30;99.90;;;;;;486467;244;28832;-74
2022/06/05 10:32:39;;;;;;;5.43;4.97;;;20.30;99.90;;;;;;486453;244;28920;-73
2022/06/05 10:34:38;;;;;;;5.40;5.00;;;20.20;99.90;;;;;;486292;243;28790;-73
2022/06/05 10:36:39;;;;;;;6.10;5.60;;;20.10;99.90;;;;;;486440;244;29410;-73
2022/06/05 10:38:41;;;;;;;6.23;5.73;;;20.10;99.90;;;;;;486459;244;29309;-73
2022/06/05 10:40:41;;;;;;;6.13;5.63;;;20.10;99.90;;;;;;486394;244;29316;-73
2022/06/05 10:42:43;;;;;;;5.83;5.43;;;20.10;99.90;;;;;;486446;244;29338;-73
2022/06/05 10:44:44;;;;;;;5.97;5.47;;;20.10;99.90;;;;;;486436;244;28825;-73
2022/06/05 10:46:45;;;;;;;6.80;6.20;;;20.20;99.90;;;;;;486461;244;28955;-73
2022/06/05 10:48:46;;;;;;;5.83;5.43;;;20.20;99.90;;;;;;486416;244;28913;-75